METAR Formatted Surface Weather Observation
Issued by NWS

Home | Current Version | Previous Version | Text Only | Print | Product List | Glossary On
Versions: 1 2 3 4 5 6
000
SAUS41 KGYX 301802 COR
MTRNKT
METAR KNKT 301754Z 04012KT 10SM OVC090 18/08 A3016 RMK AO2 SLP209
T01830078 10183 20122 58010



USA.gov is the U.S. government's official web portal to all federal, state and local government web resources and services.